sensor_id;sensor_type;location;lat;lon;timestamp;P1;durP1;ratioP1;P2;durP2;ratioP2
44822;SDS011;51097;51.984;5.650;2023-07-31T00:00:26;1.73;;;1.48;;
44822;SDS011;51097;51.984;5.650;2023-07-31T00:02:52;1.92;;;1.60;;
44822;SDS011;51097;51.984;5.650;2023-07-31T00:05:17;1.63;;;1.45;;
44822;SDS011;51097;51.984;5.650;2023-07-31T00:07:43;2.17;;;1.55;;
44822;SDS011;51097;51.984;5.650;2023-07-31T00:10:09;1.35;;;1.23;;
44822;SDS011;51097;51.984;5.650;2023-07-31T00:12:34;3.60;;;1.92;;
44822;SDS011;51097;51.984;5.650;2023-07-31T00:15:00;3.45;;;2.53;;
44822;SDS011;51097;51.984;5.650;2023-07-31T00:17:26;1.85;;;1.73;;
44822;SDS011;51097;51.984;5.650;2023-07-31T00:19:52;4.10;;;2.17;;
44822;SDS011;51097;51.984;5.650;2023-07-31T00:22:17;3.47;;;2.20;;
44822;SDS011;51097;51.984;5.650;2023-07-31T00:24:43;4.35;;;3.17;;
44822;SDS011;51097;51.984;5.650;2023-07-31T00:27:08;6.15;;;3.97;;
44822;SDS011;51097;51.984;5.650;2023-07-31T00:29:34;7.57;;;4.75;;
44822;SDS011;51097;51.984;5.650;2023-07-31T00:32:00;9.18;;;5.22;;
44822;SDS011;51097;51.984;5.650;2023-07-31T00:34:26;16.02;;;6.88;;
44822;SDS011;51097;51.984;5.650;2023-07-31T00:36:51;16.58;;;8.00;;
44822;SDS011;51097;51.984;5.650;2023-07-31T00:39:17;14.77;;;7.47;;
44822;SDS011;51097;51.984;5.650;2023-07-31T00:41:42;13.68;;;6.97;;
44822;SDS011;51097;51.984;5.650;2023-07-31T00:44:08;20.40;;;8.55;;
44822;SDS011;51097;51.984;5.650;2023-07-31T00:46:33;28.92;;;12.35;;
44822;SDS011;51097;51.984;5.650;2023-07-31T00:48:59;26.52;;;12.63;;
44822;SDS011;51097;51.984;5.650;2023-07-31T00:51:25;28.73;;;11.55;;
44822;SDS011;51097;51.984;5.650;2023-07-31T00:53:51;29.90;;;11.55;;
44822;SDS011;51097;51.984;5.650;2023-07-31T00:56:19;30.95;;;11.38;;
44822;SDS011;51097;51.984;5.650;2023-07-31T00:58:44;34.88;;;13.63;;
44822;SDS011;51097;51.984;5.650;2023-07-31T01:01:10;38.80;;;13.25;;
44822;SDS011;51097;51.984;5.650;2023-07-31T01:03:36;26.08;;;11.38;;
44822;SDS011;51097;51.984;5.650;2023-07-31T01:08:51;32.53;;;12.18;;
44822;SDS011;51097;51.984;5.650;2023-07-31T01:11:30;29.63;;;13.10;;
44822;SDS011;51097;51.984;5.650;2023-07-31T01:13:59;29.25;;;12.88;;
44822;SDS011;51097;51.984;5.650;2023-07-31T01:16:26;29.95;;;11.80;;
44822;SDS011;51097;51.984;5.650;2023-07-31T01:18:51;29.27;;;12.65;;
44822;SDS011;51097;51.984;5.650;2023-07-31T01:21:23;26.45;;;12.77;;
44822;SDS011;51097;51.984;5.650;2023-07-31T01:26:38;31.98;;;11.93;;
44822;SDS011;51097;51.984;5.650;2023-07-31T01:32:01;31.95;;;12.00;;
44822;SDS011;51097;51.984;5.650;2023-07-31T01:34:28;25.30;;;11.18;;
44822;SDS011;51097;51.984;5.650;2023-07-31T01:36:55;22.95;;;11.35;;
44822;SDS011;51097;51.984;5.650;2023-07-31T01:39:23;28.38;;;11.73;;
44822;SDS011;51097;51.984;5.650;2023-07-31T01:41:48;27.35;;;12.32;;
44822;SDS011;51097;51.984;5.650;2023-07-31T01:44:14;28.38;;;10.52;;
44822;SDS011;51097;51.984;5.650;2023-07-31T01:46:40;30.55;;;12.25;;
44822;SDS011;51097;51.984;5.650;2023-07-31T01:49:05;37.75;;;12.50;;
44822;SDS011;51097;51.984;5.650;2023-07-31T01:51:31;22.15;;;10.80;;
44822;SDS011;51097;51.984;5.650;2023-07-31T01:54:03;23.95;;;10.85;;
44822;SDS011;51097;51.984;5.650;2023-07-31T01:56:28;26.40;;;11.25;;
44822;SDS011;51097;51.984;5.650;2023-07-31T01:58:54;25.17;;;10.82;;
44822;SDS011;51097;51.984;5.650;2023-07-31T02:01:20;26.52;;;11.95;;
44822;SDS011;51097;51.984;5.650;2023-07-31T02:03:45;29.45;;;9.85;;
44822;SDS011;51097;51.984;5.650;2023-07-31T02:06:11;24.65;;;11.48;;
44822;SDS011;51097;51.984;5.650;2023-07-31T02:08:36;25.40;;;10.68;;
44822;SDS011;51097;51.984;5.650;2023-07-31T02:11:02;28.35;;;10.13;;
44822;SDS011;51097;51.984;5.650;2023-07-31T02:13:28;22.90;;;9.93;;
44822;SDS011;51097;51.984;5.650;2023-07-31T02:15:54;22.50;;;10.32;;
44822;SDS011;51097;51.984;5.650;2023-07-31T02:18:19;28.25;;;10.90;;
44822;SDS011;51097;51.984;5.650;2023-07-31T02:20:49;23.25;;;10.13;;
44822;SDS011;51097;51.984;5.650;2023-07-31T02:23:16;20.15;;;9.00;;
44822;SDS011;51097;51.984;5.650;2023-07-31T02:25:42;24.27;;;8.38;;
44822;SDS011;51097;51.984;5.650;2023-07-31T02:28:08;15.00;;;7.40;;
44822;SDS011;51097;51.984;5.650;2023-07-31T02:30:33;15.25;;;6.82;;
44822;SDS011;51097;51.984;5.650;2023-07-31T02:32:59;17.02;;;7.55;;
44822;SDS011;51097;51.984;5.650;2023-07-31T02:35:24;18.40;;;7.32;;
44822;SDS011;51097;51.984;5.650;2023-07-31T02:37:50;17.58;;;7.18;;
44822;SDS011;51097;51.984;5.650;2023-07-31T02:40:16;16.38;;;8.52;;
44822;SDS011;51097;51.984;5.650;2023-07-31T02:42:41;27.73;;;9.52;;
44822;SDS011;51097;51.984;5.650;2023-07-31T02:45:07;25.42;;;8.85;;
44822;SDS011;51097;51.984;5.650;2023-07-31T02:47:33;19.90;;;9.10;;
44822;SDS011;51097;51.984;5.650;2023-07-31T02:49:59;22.95;;;9.80;;
44822;SDS011;51097;51.984;5.650;2023-07-31T02:52:25;26.83;;;9.43;;
44822;SDS011;51097;51.984;5.650;2023-07-31T02:54:50;23.13;;;9.82;;
44822;SDS011;51097;51.984;5.650;2023-07-31T02:57:16;27.02;;;9.02;;
44822;SDS011;51097;51.984;5.650;2023-07-31T02:59:41;23.45;;;8.70;;
44822;SDS011;51097;51.984;5.650;2023-07-31T03:02:07;23.45;;;9.52;;
44822;SDS011;51097;51.984;5.650;2023-07-31T03:04:32;24.40;;;8.77;;
44822;SDS011;51097;51.984;5.650;2023-07-31T03:06:58;19.95;;;8.73;;
44822;SDS011;51097;51.984;5.650;2023-07-31T03:09:24;22.17;;;9.05;;
44822;SDS011;51097;51.984;5.650;2023-07-31T03:11:49;22.95;;;10.05;;
44822;SDS011;51097;51.984;5.650;2023-07-31T03:14:15;27.73;;;11.10;;
44822;SDS011;51097;51.984;5.650;2023-07-31T03:16:40;28.15;;;10.73;;
44822;SDS011;51097;51.984;5.650;2023-07-31T03:19:06;21.08;;;8.55;;
44822;SDS011;51097;51.984;5.650;2023-07-31T03:21:31;28.35;;;9.05;;
44822;SDS011;51097;51.984;5.650;2023-07-31T03:23:57;26.27;;;9.38;;
44822;SDS011;51097;51.984;5.650;2023-07-31T03:26:22;23.55;;;9.13;;
44822;SDS011;51097;51.984;5.650;2023-07-31T03:28:48;23.73;;;9.43;;
44822;SDS011;51097;51.984;5.650;2023-07-31T03:31:14;25.33;;;9.80;;
44822;SDS011;51097;51.984;5.650;2023-07-31T03:33:40;25.77;;;9.00;;
44822;SDS011;51097;51.984;5.650;2023-07-31T03:36:05;17.98;;;8.13;;
44822;SDS011;51097;51.984;5.650;2023-07-31T03:38:32;20.50;;;7.85;;
44822;SDS011;51097;51.984;5.650;2023-07-31T03:40:58;24.08;;;8.40;;
44822;SDS011;51097;51.984;5.650;2023-07-31T03:43:24;24.25;;;8.52;;
44822;SDS011;51097;51.984;5.650;2023-07-31T03:45:50;22.17;;;8.90;;
44822;SDS011;51097;51.984;5.650;2023-07-31T03:48:16;18.52;;;8.05;;
44822;SDS011;51097;51.984;5.650;2023-07-31T03:50:41;20.40;;;8.40;;
44822;SDS011;51097;51.984;5.650;2023-07-31T03:53:07;28.42;;;8.77;;
44822;SDS011;51097;51.984;5.650;2023-07-31T03:55:33;22.63;;;9.52;;
44822;SDS011;51097;51.984;5.650;2023-07-31T03:57:58;27.55;;;8.98;;
44822;SDS011;51097;51.984;5.650;2023-07-31T04:00:25;21.85;;;9.52;;
44822;SDS011;51097;51.984;5.650;2023-07-31T04:02:52;18.35;;;8.60;;
44822;SDS011;51097;51.984;5.650;2023-07-31T04:05:17;23.17;;;8.98;;
44822;SDS011;51097;51.984;5.650;2023-07-31T04:07:43;21.20;;;8.10;;
44822;SDS011;51097;51.984;5.650;2023-07-31T04:10:09;25.10;;;8.32;;
44822;SDS011;51097;51.984;5.650;2023-07-31T04:12:34;16.95;;;8.32;;
44822;SDS011;51097;51.984;5.650;2023-07-31T04:15:00;17.35;;;8.05;;
44822;SDS011;51097;51.984;5.650;2023-07-31T04:17:25;19.42;;;8.25;;
44822;SDS011;51097;51.984;5.650;2023-07-31T04:19:51;26.30;;;8.65;;
44822;SDS011;51097;51.984;5.650;2023-07-31T04:22:17;22.40;;;7.68;;
44822;SDS011;51097;51.984;5.650;2023-07-31T04:24:42;28.05;;;9.05;;
44822;SDS011;51097;51.984;5.650;2023-07-31T04:27:08;18.52;;;8.07;;
44822;SDS011;51097;51.984;5.650;2023-07-31T04:29:33;14.45;;;7.63;;
44822;SDS011;51097;51.984;5.650;2023-07-31T04:31:59;20.48;;;8.68;;
44822;SDS011;51097;51.984;5.650;2023-07-31T04:34:24;25.25;;;8.48;;
44822;SDS011;51097;51.984;5.650;2023-07-31T04:36:50;22.60;;;8.20;;
44822;SDS011;51097;51.984;5.650;2023-07-31T04:39:16;17.95;;;8.25;;
44822;SDS011;51097;51.984;5.650;2023-07-31T04:41:41;22.73;;;9.35;;
44822;SDS011;51097;51.984;5.650;2023-07-31T04:44:07;21.40;;;8.18;;
44822;SDS011;51097;51.984;5.650;2023-07-31T04:46:32;19.83;;;8.13;;
44822;SDS011;51097;51.984;5.650;2023-07-31T04:48:58;22.85;;;8.13;;
44822;SDS011;51097;51.984;5.650;2023-07-31T04:51:23;19.13;;;8.13;;
44822;SDS011;51097;51.984;5.650;2023-07-31T04:53:50;20.88;;;8.40;;
44822;SDS011;51097;51.984;5.650;2023-07-31T04:56:15;18.58;;;8.35;;
44822;SDS011;51097;51.984;5.650;2023-07-31T04:58:41;25.42;;;8.18;;
44822;SDS011;51097;51.984;5.650;2023-07-31T05:01:07;21.75;;;8.48;;
44822;SDS011;51097;51.984;5.650;2023-07-31T05:03:32;19.95;;;7.60;;
44822;SDS011;51097;51.984;5.650;2023-07-31T05:05:58;21.98;;;8.48;;
44822;SDS011;51097;51.984;5.650;2023-07-31T05:08:24;23.70;;;8.18;;
44822;SDS011;51097;51.984;5.650;2023-07-31T05:10:49;20.05;;;7.57;;
44822;SDS011;51097;51.984;5.650;2023-07-31T05:13:15;19.00;;;7.70;;
44822;SDS011;51097;51.984;5.650;2023-07-31T05:15:41;13.23;;;7.57;;
44822;SDS011;51097;51.984;5.650;2023-07-31T05:18:07;17.40;;;8.48;;
44822;SDS011;51097;51.984;5.650;2023-07-31T05:20:32;23.00;;;7.18;;
44822;SDS011;51097;51.984;5.650;2023-07-31T05:22:58;22.80;;;8.32;;
44822;SDS011;51097;51.984;5.650;2023-07-31T05:25:23;17.67;;;7.47;;
44822;SDS011;51097;51.984;5.650;2023-07-31T05:27:49;14.32;;;8.32;;
44822;SDS011;51097;51.984;5.650;2023-07-31T05:30:14;21.67;;;8.45;;
44822;SDS011;51097;51.984;5.650;2023-07-31T05:32:40;14.98;;;7.97;;
44822;SDS011;51097;51.984;5.650;2023-07-31T05:35:06;13.82;;;8.05;;
44822;SDS011;51097;51.984;5.650;2023-07-31T05:37:32;20.58;;;9.50;;
44822;SDS011;51097;51.984;5.650;2023-07-31T05:39:57;21.27;;;10.10;;
44822;SDS011;51097;51.984;5.650;2023-07-31T05:42:23;15.27;;;8.45;;
44822;SDS011;51097;51.984;5.650;2023-07-31T05:44:48;14.13;;;8.60;;
44822;SDS011;51097;51.984;5.650;2023-07-31T05:47:14;15.13;;;9.18;;
44822;SDS011;51097;51.984;5.650;2023-07-31T05:49:40;15.23;;;8.35;;
44822;SDS011;51097;51.984;5.650;2023-07-31T05:52:05;18.65;;;8.55;;
44822;SDS011;51097;51.984;5.650;2023-07-31T05:54:31;13.95;;;7.97;;
44822;SDS011;51097;51.984;5.650;2023-07-31T05:56:57;13.25;;;8.23;;
44822;SDS011;51097;51.984;5.650;2023-07-31T05:59:23;15.85;;;8.13;;
44822;SDS011;51097;51.984;5.650;2023-07-31T06:01:49;13.95;;;7.53;;
44822;SDS011;51097;51.984;5.650;2023-07-31T06:04:14;18.65;;;8.93;;
44822;SDS011;51097;51.984;5.650;2023-07-31T06:06:40;16.50;;;7.28;;
44822;SDS011;51097;51.984;5.650;2023-07-31T06:09:05;17.40;;;7.43;;
44822;SDS011;51097;51.984;5.650;2023-07-31T06:11:32;13.38;;;7.90;;
44822;SDS011;51097;51.984;5.650;2023-07-31T06:13:58;19.63;;;8.73;;
44822;SDS011;51097;51.984;5.650;2023-07-31T06:16:24;13.27;;;7.68;;
44822;SDS011;51097;51.984;5.650;2023-07-31T06:18:52;18.23;;;7.28;;
44822;SDS011;51097;51.984;5.650;2023-07-31T06:21:17;15.30;;;7.93;;
44822;SDS011;51097;51.984;5.650;2023-07-31T06:23:43;14.02;;;7.15;;
44822;SDS011;51097;51.984;5.650;2023-07-31T06:26:09;12.43;;;7.25;;
44822;SDS011;51097;51.984;5.650;2023-07-31T06:28:34;15.35;;;7.38;;
44822;SDS011;51097;51.984;5.650;2023-07-31T06:31:00;16.30;;;8.13;;
44822;SDS011;51097;51.984;5.650;2023-07-31T06:33:26;14.13;;;6.75;;
44822;SDS011;51097;51.984;5.650;2023-07-31T06:35:52;16.23;;;7.80;;
44822;SDS011;51097;51.984;5.650;2023-07-31T06:38:21;10.07;;;7.00;;
44822;SDS011;51097;51.984;5.650;2023-07-31T06:40:49;11.95;;;7.25;;
44822;SDS011;51097;51.984;5.650;2023-07-31T06:43:14;14.98;;;7.18;;
44822;SDS011;51097;51.984;5.650;2023-07-31T06:45:40;10.35;;;5.75;;
44822;SDS011;51097;51.984;5.650;2023-07-31T06:48:05;11.27;;;6.07;;
44822;SDS011;51097;51.984;5.650;2023-07-31T06:50:31;7.90;;;5.18;;
44822;SDS011;51097;51.984;5.650;2023-07-31T06:52:57;9.48;;;5.25;;
44822;SDS011;51097;51.984;5.650;2023-07-31T06:55:23;14.52;;;6.75;;
44822;SDS011;51097;51.984;5.650;2023-07-31T06:57:50;8.65;;;5.22;;
44822;SDS011;51097;51.984;5.650;2023-07-31T07:00:18;7.88;;;4.22;;
44822;SDS011;51097;51.984;5.650;2023-07-31T07:02:44;8.95;;;4.60;;
44822;SDS011;51097;51.984;5.650;2023-07-31T07:05:12;6.03;;;4.30;;
44822;SDS011;51097;51.984;5.650;2023-07-31T07:07:38;6.43;;;3.55;;
44822;SDS011;51097;51.984;5.650;2023-07-31T07:10:04;6.65;;;3.72;;
44822;SDS011;51097;51.984;5.650;2023-07-31T07:12:30;4.63;;;3.33;;
44822;SDS011;51097;51.984;5.650;2023-07-31T07:14:57;5.07;;;3.42;;
44822;SDS011;51097;51.984;5.650;2023-07-31T07:17:24;3.50;;;3.15;;
44822;SDS011;51097;51.984;5.650;2023-07-31T07:19:50;4.47;;;3.22;;
44822;SDS011;51097;51.984;5.650;2023-07-31T07:22:16;4.72;;;3.15;;
44822;SDS011;51097;51.984;5.650;2023-07-31T07:24:41;4.68;;;3.13;;
44822;SDS011;51097;51.984;5.650;2023-07-31T07:27:07;4.88;;;3.10;;
44822;SDS011;51097;51.984;5.650;2023-07-31T07:29:35;4.75;;;3.60;;
44822;SDS011;51097;51.984;5.650;2023-07-31T07:32:02;6.55;;;3.45;;
44822;SDS011;51097;51.984;5.650;2023-07-31T07:34:28;4.45;;;3.38;;
44822;SDS011;51097;51.984;5.650;2023-07-31T07:36:54;4.88;;;3.38;;
44822;SDS011;51097;51.984;5.650;2023-07-31T07:39:20;5.82;;;4.00;;
44822;SDS011;51097;51.984;5.650;2023-07-31T07:41:46;4.65;;;3.90;;
44822;SDS011;51097;51.984;5.650;2023-07-31T07:44:12;4.72;;;4.00;;
44822;SDS011;51097;51.984;5.650;2023-07-31T07:46:38;4.88;;;4.38;;
44822;SDS011;51097;51.984;5.650;2023-07-31T07:49:04;4.30;;;3.90;;
44822;SDS011;51097;51.984;5.650;2023-07-31T07:51:30;6.85;;;4.88;;
44822;SDS011;51097;51.984;5.650;2023-07-31T07:53:57;4.47;;;4.07;;
44822;SDS011;51097;51.984;5.650;2023-07-31T07:56:23;5.85;;;4.15;;
44822;SDS011;51097;51.984;5.650;2023-07-31T07:58:50;4.75;;;4.03;;
44822;SDS011;51097;51.984;5.650;2023-07-31T08:01:16;4.07;;;3.67;;
44822;SDS011;51097;51.984;5.650;2023-07-31T08:03:41;7.25;;;4.25;;
44822;SDS011;51097;51.984;5.650;2023-07-31T08:06:07;5.05;;;3.65;;
44822;SDS011;51097;51.984;5.650;2023-07-31T08:08:34;4.85;;;3.50;;
44822;SDS011;51097;51.984;5.650;2023-07-31T08:11:03;5.53;;;3.95;;
44822;SDS011;51097;51.984;5.650;2023-07-31T08:13:29;3.70;;;3.40;;
44822;SDS011;51097;51.984;5.650;2023-07-31T08:15:55;4.47;;;3.47;;
44822;SDS011;51097;51.984;5.650;2023-07-31T08:18:23;4.13;;;3.30;;
44822;SDS011;51097;51.984;5.650;2023-07-31T08:20:49;3.63;;;3.30;;
44822;SDS011;51097;51.984;5.650;2023-07-31T08:23:15;4.22;;;3.58;;
44822;SDS011;51097;51.984;5.650;2023-07-31T08:25:40;3.83;;;3.42;;
44822;SDS011;51097;51.984;5.650;2023-07-31T08:28:06;3.35;;;3.08;;
44822;SDS011;51097;51.984;5.650;2023-07-31T08:30:33;4.93;;;3.65;;
44822;SDS011;51097;51.984;5.650;2023-07-31T08:32:59;4.68;;;4.07;;
44822;SDS011;51097;51.984;5.650;2023-07-31T08:35:25;4.97;;;3.72;;
44822;SDS011;51097;51.984;5.650;2023-07-31T08:37:53;4.75;;;4.35;;
44822;SDS011;51097;51.984;5.650;2023-07-31T08:40:18;5.07;;;4.60;;
44822;SDS011;51097;51.984;5.650;2023-07-31T08:42:47;4.35;;;4.03;;
44822;SDS011;51097;51.984;5.650;2023-07-31T08:45:15;5.28;;;4.15;;
44822;SDS011;51097;51.984;5.650;2023-07-31T08:47:49;5.00;;;4.50;;
44822;SDS011;51097;51.984;5.650;2023-07-31T08:50:16;4.35;;;3.95;;
44822;SDS011;51097;51.984;5.650;2023-07-31T08:52:44;4.53;;;4.13;;
44822;SDS011;51097;51.984;5.650;2023-07-31T08:55:10;4.57;;;4.18;;
44822;SDS011;51097;51.984;5.650;2023-07-31T08:57:37;5.05;;;4.60;;
44822;SDS011;51097;51.984;5.650;2023-07-31T09:00:06;5.13;;;4.57;;
44822;SDS011;51097;51.984;5.650;2023-07-31T09:02:37;5.72;;;4.15;;
44822;SDS011;51097;51.984;5.650;2023-07-31T09:05:08;4.50;;;4.10;;
44822;SDS011;51097;51.984;5.650;2023-07-31T09:07:35;4.85;;;4.35;;
44822;SDS011;51097;51.984;5.650;2023-07-31T09:10:02;5.65;;;4.78;;
44822;SDS011;51097;51.984;5.650;2023-07-31T09:12:29;5.75;;;4.97;;
44822;SDS011;51097;51.984;5.650;2023-07-31T09:14:55;8.48;;;6.30;;
44822;SDS011;51097;51.984;5.650;2023-07-31T09:17:30;8.25;;;6.72;;
44822;SDS011;51097;51.984;5.650;2023-07-31T09:19:57;7.57;;;6.95;;
44822;SDS011;51097;51.984;5.650;2023-07-31T09:25:13;7.40;;;6.68;;
44822;SDS011;51097;51.984;5.650;2023-07-31T09:27:53;7.88;;;6.75;;
44822;SDS011;51097;51.984;5.650;2023-07-31T09:30:23;8.80;;;8.00;;
44822;SDS011;51097;51.984;5.650;2023-07-31T09:32:50;8.55;;;7.60;;
44822;SDS011;51097;51.984;5.650;2023-07-31T09:37:53;11.60;;;10.10;;
44822;SDS011;51097;51.984;5.650;2023-07-31T09:40:25;10.02;;;8.48;;
44822;SDS011;51097;51.984;5.650;2023-07-31T09:42:52;14.38;;;10.18;;
44822;SDS011;51097;51.984;5.650;2023-07-31T09:45:18;11.10;;;10.05;;
44822;SDS011;51097;51.984;5.650;2023-07-31T09:47:47;12.35;;;10.77;;
44822;SDS011;51097;51.984;5.650;2023-07-31T09:50:14;10.63;;;9.68;;
44822;SDS011;51097;51.984;5.650;2023-07-31T09:52:41;11.35;;;10.25;;
44822;SDS011;51097;51.984;5.650;2023-07-31T09:55:07;12.23;;;11.07;;
44822;SDS011;51097;51.984;5.650;2023-07-31T09:57:33;11.52;;;10.25;;
44822;SDS011;51097;51.984;5.650;2023-07-31T10:00:00;10.88;;;9.88;;
44822;SDS011;51097;51.984;5.650;2023-07-31T10:02:26;13.60;;;10.50;;
44822;SDS011;51097;51.984;5.650;2023-07-31T10:04:53;11.80;;;9.90;;
44822;SDS011;51097;51.984;5.650;2023-07-31T10:07:23;12.52;;;9.43;;
44822;SDS011;51097;51.984;5.650;2023-07-31T10:09:51;11.73;;;10.07;;
44822;SDS011;51097;51.984;5.650;2023-07-31T10:12:19;12.68;;;11.25;;
44822;SDS011;51097;51.984;5.650;2023-07-31T10:14:47;11.30;;;10.10;;
44822;SDS011;51097;51.984;5.650;2023-07-31T10:17:13;10.55;;;9.48;;
44822;SDS011;51097;51.984;5.650;2023-07-31T10:19:39;12.40;;;11.27;;
44822;SDS011;51097;51.984;5.650;2023-07-31T10:22:06;12.43;;;10.80;;
44822;SDS011;51097;51.984;5.650;2023-07-31T10:24:33;14.07;;;10.82;;
44822;SDS011;51097;51.984;5.650;2023-07-31T10:27:00;12.15;;;10.55;;
44822;SDS011;51097;51.984;5.650;2023-07-31T10:29:27;12.82;;;10.88;;
44822;SDS011;51097;51.984;5.650;2023-07-31T10:31:54;14.07;;;12.57;;
44822;SDS011;51097;51.984;5.650;2023-07-31T10:34:23;12.38;;;11.13;;
44822;SDS011;51097;51.984;5.650;2023-07-31T10:36:49;12.77;;;11.10;;
44822;SDS011;51097;51.984;5.650;2023-07-31T10:39:33;12.30;;;11.18;;
44822;SDS011;51097;51.984;5.650;2023-07-31T10:42:13;12.98;;;11.80;;
44822;SDS011;51097;51.984;5.650;2023-07-31T10:44:43;15.00;;;11.13;;
44822;SDS011;51097;51.984;5.650;2023-07-31T10:47:14;11.63;;;10.43;;
44822;SDS011;51097;51.984;5.650;2023-07-31T10:49:41;11.45;;;10.02;;
44822;SDS011;51097;51.984;5.650;2023-07-31T10:52:10;12.20;;;10.95;;
44822;SDS011;51097;51.984;5.650;2023-07-31T10:54:38;14.32;;;10.10;;
44822;SDS011;51097;51.984;5.650;2023-07-31T10:57:18;10.70;;;9.60;;
44822;SDS011;51097;51.984;5.650;2023-07-31T10:59:45;10.60;;;9.60;;
44822;SDS011;51097;51.984;5.650;2023-07-31T11:02:23;10.43;;;9.45;;
44822;SDS011;51097;51.984;5.650;2023-07-31T11:05:05;9.88;;;8.88;;
44822;SDS011;51097;51.984;5.650;2023-07-31T11:07:51;9.27;;;7.85;;
44822;SDS011;51097;51.984;5.650;2023-07-31T11:10:17;11.30;;;8.27;;
44822;SDS011;51097;51.984;5.650;2023-07-31T11:12:44;8.98;;;8.18;;
44822;SDS011;51097;51.984;5.650;2023-07-31T11:15:11;11.60;;;8.68;;
44822;SDS011;51097;51.984;5.650;2023-07-31T11:17:40;9.95;;;8.25;;
44822;SDS011;51097;51.984;5.650;2023-07-31T11:20:06;9.90;;;8.40;;
44822;SDS011;51097;51.984;5.650;2023-07-31T11:22:34;10.40;;;8.98;;
44822;SDS011;51097;51.984;5.650;2023-07-31T11:25:01;9.45;;;8.55;;
44822;SDS011;51097;51.984;5.650;2023-07-31T11:27:28;9.25;;;8.20;;
44822;SDS011;51097;51.984;5.650;2023-07-31T11:30:00;9.48;;;8.20;;
44822;SDS011;51097;51.984;5.650;2023-07-31T11:32:27;9.10;;;8.13;;
44822;SDS011;51097;51.984;5.650;2023-07-31T11:34:52;9.48;;;8.68;;
44822;SDS011;51097;51.984;5.650;2023-07-31T11:37:22;8.85;;;7.68;;
44822;SDS011;51097;51.984;5.650;2023-07-31T11:39:58;9.35;;;7.28;;
44822;SDS011;51097;51.984;5.650;2023-07-31T11:42:27;9.52;;;7.82;;
44822;SDS011;51097;51.984;5.650;2023-07-31T11:44:52;9.95;;;7.05;;
44822;SDS011;51097;51.984;5.650;2023-07-31T11:47:18;7.95;;;7.18;;
44822;SDS011;51097;51.984;5.650;2023-07-31T11:49:45;7.95;;;6.63;;
44822;SDS011;51097;51.984;5.650;2023-07-31T11:52:10;8.77;;;7.38;;
44822;SDS011;51097;51.984;5.650;2023-07-31T11:54:37;9.35;;;7.78;;
44822;SDS011;51097;51.984;5.650;2023-07-31T11:57:05;9.20;;;7.82;;
44822;SDS011;51097;51.984;5.650;2023-07-31T11:59:32;6.75;;;6.07;;
44822;SDS011;51097;51.984;5.650;2023-07-31T12:01:57;6.30;;;5.70;;
44822;SDS011;51097;51.984;5.650;2023-07-31T12:04:23;7.53;;;5.50;;
44822;SDS011;51097;51.984;5.650;2023-07-31T12:06:50;6.38;;;5.38;;
44822;SDS011;51097;51.984;5.650;2023-07-31T12:09:18;6.72;;;4.97;;
44822;SDS011;51097;51.984;5.650;2023-07-31T12:12:26;5.20;;;4.20;;
44822;SDS011;51097;51.984;5.650;2023-07-31T12:14:50;5.03;;;4.63;;
44822;SDS011;51097;51.984;5.650;2023-07-31T12:17:16;5.88;;;4.55;;
44822;SDS011;51097;51.984;5.650;2023-07-31T12:19:43;5.53;;;4.35;;
44822;SDS011;51097;51.984;5.650;2023-07-31T12:22:27;6.75;;;5.43;;
44822;SDS011;51097;51.984;5.650;2023-07-31T12:24:57;4.57;;;4.18;;
44822;SDS011;51097;51.984;5.650;2023-07-31T12:27:32;5.97;;;5.00;;
44822;SDS011;51097;51.984;5.650;2023-07-31T12:30:33;8.93;;;5.05;;
44822;SDS011;51097;51.984;5.650;2023-07-31T12:35:58;7.10;;;5.72;;
44822;SDS011;51097;51.984;5.650;2023-07-31T12:38:34;6.82;;;6.10;;
44822;SDS011;51097;51.984;5.650;2023-07-31T12:46:41;7.70;;;7.07;;
44822;SDS011;51097;51.984;5.650;2023-07-31T12:52:27;8.80;;;7.95;;
44822;SDS011;51097;51.984;5.650;2023-07-31T12:54:53;10.77;;;8.98;;
44822;SDS011;51097;51.984;5.650;2023-07-31T13:00:32;9.43;;;8.38;;
44822;SDS011;51097;51.984;5.650;2023-07-31T13:02:57;8.75;;;7.85;;
44822;SDS011;51097;51.984;5.650;2023-07-31T13:05:25;9.43;;;7.75;;
44822;SDS011;51097;51.984;5.650;2023-07-31T13:07:50;9.05;;;8.15;;
44822;SDS011;51097;51.984;5.650;2023-07-31T13:10:16;9.20;;;8.30;;
44822;SDS011;51097;51.984;5.650;2023-07-31T13:12:42;8.77;;;7.95;;
44822;SDS011;51097;51.984;5.650;2023-07-31T13:15:07;9.60;;;8.50;;
44822;SDS011;51097;51.984;5.650;2023-07-31T13:17:33;8.80;;;7.80;;
44822;SDS011;51097;51.984;5.650;2023-07-31T13:20:00;8.48;;;7.78;;
44822;SDS011;51097;51.984;5.650;2023-07-31T13:22:26;9.32;;;8.43;;
44822;SDS011;51097;51.984;5.650;2023-07-31T13:24:52;8.73;;;7.75;;
44822;SDS011;51097;51.984;5.650;2023-07-31T13:27:17;9.05;;;7.13;;
44822;SDS011;51097;51.984;5.650;2023-07-31T13:29:45;8.68;;;7.15;;
44822;SDS011;51097;51.984;5.650;2023-07-31T13:32:11;11.63;;;7.32;;
44822;SDS011;51097;51.984;5.650;2023-07-31T13:34:37;9.63;;;7.25;;
44822;SDS011;51097;51.984;5.650;2023-07-31T13:37:03;6.93;;;6.22;;
44822;SDS011;51097;51.984;5.650;2023-07-31T13:39:30;7.65;;;6.95;;
44822;SDS011;51097;51.984;5.650;2023-07-31T13:41:56;7.75;;;6.95;;
44822;SDS011;51097;51.984;5.650;2023-07-31T13:44:22;8.60;;;7.70;;
44822;SDS011;51097;51.984;5.650;2023-07-31T13:46:47;9.00;;;6.97;;
44822;SDS011;51097;51.984;5.650;2023-07-31T13:49:13;7.82;;;7.03;;
44822;SDS011;51097;51.984;5.650;2023-07-31T13:51:39;9.70;;;7.43;;
44822;SDS011;51097;51.984;5.650;2023-07-31T13:54:05;12.18;;;8.10;;
44822;SDS011;51097;51.984;5.650;2023-07-31T13:56:31;9.75;;;8.32;;
44822;SDS011;51097;51.984;5.650;2023-07-31T13:58:57;8.95;;;8.05;;
44822;SDS011;51097;51.984;5.650;2023-07-31T14:01:23;13.57;;;8.13;;
44822;SDS011;51097;51.984;5.650;2023-07-31T14:03:49;11.23;;;9.48;;
44822;SDS011;51097;51.984;5.650;2023-07-31T14:06:14;9.73;;;8.73;;
44822;SDS011;51097;51.984;5.650;2023-07-31T14:08:41;10.27;;;8.35;;
44822;SDS011;51097;51.984;5.650;2023-07-31T14:11:07;10.27;;;8.40;;
44822;SDS011;51097;51.984;5.650;2023-07-31T14:13:32;10.27;;;7.78;;
44822;SDS011;51097;51.984;5.650;2023-07-31T14:15:58;11.98;;;10.10;;
44822;SDS011;51097;51.984;5.650;2023-07-31T14:18:23;13.30;;;8.85;;
44822;SDS011;51097;51.984;5.650;2023-07-31T14:20:49;12.27;;;9.48;;
44822;SDS011;51097;51.984;5.650;2023-07-31T14:23:14;11.15;;;10.00;;
44822;SDS011;51097;51.984;5.650;2023-07-31T14:25:40;11.60;;;8.77;;
44822;SDS011;51097;51.984;5.650;2023-07-31T14:28:06;9.93;;;8.93;;
44822;SDS011;51097;51.984;5.650;2023-07-31T14:30:32;11.65;;;7.90;;
44822;SDS011;51097;51.984;5.650;2023-07-31T14:32:57;12.48;;;9.38;;
44822;SDS011;51097;51.984;5.650;2023-07-31T14:35:25;10.18;;;7.57;;
44822;SDS011;51097;51.984;5.650;2023-07-31T14:37:51;11.60;;;8.20;;
44822;SDS011;51097;51.984;5.650;2023-07-31T14:40:16;13.25;;;7.60;;
44822;SDS011;51097;51.984;5.650;2023-07-31T14:42:42;13.35;;;7.93;;
44822;SDS011;51097;51.984;5.650;2023-07-31T14:45:08;10.25;;;7.63;;
44822;SDS011;51097;51.984;5.650;2023-07-31T14:47:35;8.40;;;7.35;;
44822;SDS011;51097;51.984;5.650;2023-07-31T14:50:00;8.48;;;7.57;;
44822;SDS011;51097;51.984;5.650;2023-07-31T14:52:27;9.25;;;7.72;;
44822;SDS011;51097;51.984;5.650;2023-07-31T14:54:53;9.27;;;7.72;;
44822;SDS011;51097;51.984;5.650;2023-07-31T14:57:18;10.77;;;7.88;;
44822;SDS011;51097;51.984;5.650;2023-07-31T14:59:45;9.55;;;7.85;;
44822;SDS011;51097;51.984;5.650;2023-07-31T15:02:11;10.65;;;7.43;;
44822;SDS011;51097;51.984;5.650;2023-07-31T15:04:37;9.20;;;7.07;;